createdAt,value
2023-02-06T00:01:30.660Z,-1.20
2023-02-06T00:03:57.689Z,-1.10
2023-02-06T00:06:31.361Z,-1.10
2023-02-06T00:09:05.730Z,-1.10
2023-02-06T00:11:32.697Z,-1.10
2023-02-06T00:13:59.661Z,-1.10
2023-02-06T00:16:28.251Z,-1.00
2023-02-06T00:18:55.829Z,-1.00
2023-02-06T00:21:25.936Z,-1.10
2023-02-06T00:23:54.073Z,-1.00
2023-02-06T00:26:27.385Z,-1.00
2023-02-06T00:29:14.320Z,-1.00
2023-02-06T00:32:01.517Z,-1.00
2023-02-06T00:34:34.941Z,-0.90
2023-02-06T00:37:02.538Z,-0.90
2023-02-06T00:39:29.673Z,-0.90
2023-02-06T00:41:56.563Z,-0.90
2023-02-06T00:44:23.983Z,-0.90
2023-02-06T00:46:50.974Z,-0.90
2023-02-06T00:49:18.199Z,-0.80
2023-02-06T00:51:45.499Z,-0.80
2023-02-06T00:54:14.320Z,-0.80
2023-02-06T00:56:42.065Z,-0.70
2023-02-06T00:59:09.368Z,-0.60
2023-02-06T01:01:36.351Z,-0.60
2023-02-06T01:04:03.342Z,-0.60
2023-02-06T01:06:31.088Z,-0.50
2023-02-06T01:08:57.993Z,-0.50
2023-02-06T01:11:28.345Z,-0.50
2023-02-06T01:13:55.482Z,-0.40
2023-02-06T01:16:23.662Z,-0.40
2023-02-06T01:18:53.012Z,-0.40
2023-02-06T01:21:21.920Z,-0.40
2023-02-06T01:23:49.839Z,-0.30
2023-02-06T01:26:18.516Z,-0.30
2023-02-06T01:28:46.435Z,-0.30
2023-02-06T01:31:18.114Z,-0.30
2023-02-06T01:33:46.733Z,-0.30
2023-02-06T01:36:14.014Z,-0.20
2023-02-06T01:38:41.048Z,-0.20
2023-02-06T01:41:08.885Z,-0.20
2023-02-06T01:43:37.003Z,-0.10
2023-02-06T01:46:04.263Z,-0.10
2023-02-06T01:48:42.162Z,-0.10
2023-02-06T01:51:13.980Z,-0.10
2023-02-06T01:53:42.000Z,-0.10
2023-02-06T01:56:19.539Z,-0.10
2023-02-06T01:59:07.378Z,-0.10
2023-02-06T02:01:41.926Z,0.00
2023-02-06T02:04:13.240Z,0.00
2023-02-06T02:06:41.322Z,0.00
2023-02-06T02:09:08.217Z,0.00
2023-02-06T02:11:36.764Z,0.00
2023-02-06T02:14:04.819Z,0.10
2023-02-06T02:16:31.821Z,0.10
2023-02-06T02:19:18.327Z,0.10
2023-02-06T02:21:57.776Z,0.10
2023-02-06T02:24:42.825Z,0.10
2023-02-06T02:27:12.982Z,0.20
2023-02-06T02:29:58.419Z,0.20
2023-02-06T02:32:31.215Z,0.20
2023-02-06T02:34:58.172Z,0.20
2023-02-06T02:37:35.354Z,0.20
2023-02-06T02:40:08.064Z,0.20
2023-02-06T02:42:43.383Z,0.20
2023-02-06T02:45:13.661Z,0.20
2023-02-06T02:47:47.743Z,0.20
2023-02-06T02:50:15.609Z,0.20
2023-02-06T02:52:42.594Z,0.20
2023-02-06T02:55:16.557Z,0.20
2023-02-06T02:57:47.400Z,0.30
2023-02-06T03:00:15.031Z,0.30
2023-02-06T03:02:42.100Z,0.30
2023-02-06T03:05:10.683Z,0.20
2023-02-06T03:07:41.294Z,0.30
2023-02-06T03:10:27.271Z,0.20
2023-02-06T03:13:15.068Z,0.30
2023-02-06T03:15:42.069Z,0.30
2023-02-06T03:18:12.196Z,0.30
2023-02-06T03:20:44.524Z,0.30
2023-02-06T03:23:20.051Z,0.30
2023-02-06T03:25:48.846Z,0.30
2023-02-06T03:28:25.235Z,0.40
2023-02-06T03:31:14.528Z,0.40
2023-02-06T03:33:52.217Z,0.40
2023-02-06T03:36:20.202Z,0.40
2023-02-06T03:38:48.487Z,0.40
2023-02-06T03:41:16.681Z,0.40
2023-02-06T03:43:44.770Z,0.40
2023-02-06T03:46:12.890Z,0.40
2023-02-06T03:48:42.228Z,0.40
2023-02-06T03:51:11.668Z,0.40
2023-02-06T03:53:38.927Z,0.40
2023-02-06T03:56:07.920Z,0.40
2023-02-06T03:58:37.574Z,0.40
2023-02-06T04:01:05.733Z,0.40
2023-02-06T04:03:33.001Z,0.40
2023-02-06T04:06:00.215Z,0.40
2023-02-06T04:08:27.967Z,0.40
2023-02-06T04:11:01.581Z,0.40
2023-02-06T04:13:35.337Z,0.50
2023-02-06T04:16:02.554Z,0.50
2023-02-06T04:18:29.751Z,0.50
2023-02-06T04:20:56.775Z,0.50
2023-02-06T04:23:24.207Z,0.50
2023-02-06T04:25:51.133Z,0.60
2023-02-06T04:28:18.053Z,0.60
2023-02-06T04:30:45.099Z,0.60
2023-02-06T04:33:12.282Z,0.50
2023-02-06T04:35:39.178Z,0.50
2023-02-06T04:38:06.140Z,0.50
2023-02-06T04:40:33.127Z,0.50
2023-02-06T04:43:00.164Z,0.50
2023-02-06T04:45:27.991Z,0.60
2023-02-06T04:47:54.992Z,0.60
2023-02-06T04:50:22.084Z,0.60
2023-02-06T04:52:49.098Z,0.60
2023-02-06T04:55:16.100Z,0.50
2023-02-06T04:57:49.721Z,0.50
2023-02-06T05:00:22.350Z,0.50
2023-02-06T05:02:49.318Z,0.40
2023-02-06T05:05:16.283Z,0.30
2023-02-06T05:07:43.351Z,0.20
2023-02-06T05:10:10.331Z,0.20
2023-02-06T05:12:37.397Z,0.20
2023-02-06T05:15:04.684Z,0.10
2023-02-06T05:17:44.603Z,0.10
2023-02-06T05:20:18.647Z,0.00
2023-02-06T05:22:45.596Z,0.00
2023-02-06T05:25:12.482Z,0.00
2023-02-06T05:27:39.444Z,-0.10
2023-02-06T05:30:06.691Z,-0.10
2023-02-06T05:32:33.788Z,-0.10
2023-02-06T05:35:00.819Z,-0.10
2023-02-06T05:37:30.129Z,-0.10
2023-02-06T05:39:59.114Z,-0.20
2023-02-06T05:42:26.792Z,-0.20
2023-02-06T05:44:53.774Z,-0.10
2023-02-06T05:47:20.809Z,-0.10
2023-02-06T05:49:48.456Z,-0.10
2023-02-06T05:52:15.777Z,-0.10
2023-02-06T05:54:43.079Z,-0.10
2023-02-06T05:57:10.059Z,-0.10
2023-02-06T05:59:37.274Z,-0.20
2023-02-06T06:02:04.254Z,-0.20
2023-02-06T06:04:31.613Z,-0.20
2023-02-06T06:06:58.691Z,-0.20
2023-02-06T06:09:25.693Z,-0.20
2023-02-06T06:11:52.747Z,-0.20
2023-02-06T06:14:19.698Z,-0.10
2023-02-06T06:16:46.867Z,-0.10
2023-02-06T06:19:13.828Z,-0.10
2023-02-06T06:21:40.905Z,0.00
2023-02-06T06:24:07.880Z,0.00
2023-02-06T06:26:34.804Z,0.00
2023-02-06T06:29:02.676Z,0.00
2023-02-06T06:31:29.697Z,0.00
2023-02-06T06:33:56.682Z,0.10
2023-02-06T06:36:23.782Z,0.10
2023-02-06T06:38:50.731Z,0.20
2023-02-06T06:41:17.749Z,0.30
2023-02-06T06:43:44.789Z,0.40
2023-02-06T06:46:11.761Z,0.50
2023-02-06T06:48:45.815Z,0.60
2023-02-06T06:51:34.753Z,0.60
2023-02-06T06:54:08.327Z,0.70
2023-02-06T06:56:35.310Z,0.80
2023-02-06T06:59:02.440Z,0.90
2023-02-06T07:01:29.473Z,0.90
2023-02-06T07:03:58.462Z,1.00
2023-02-06T07:06:25.637Z,1.00
2023-02-06T07:08:58.866Z,1.00
2023-02-06T07:11:32.526Z,1.10
2023-02-06T07:13:59.556Z,1.10
2023-02-06T07:16:26.551Z,1.10
2023-02-06T07:18:53.566Z,1.20
2023-02-06T07:21:20.501Z,1.20
2023-02-06T07:23:47.591Z,1.20
2023-02-06T07:26:14.559Z,1.30
2023-02-06T07:28:42.412Z,1.30
2023-02-06T07:31:10.092Z,1.40
2023-02-06T07:33:37.017Z,1.40
2023-02-06T07:36:04.444Z,1.40
2023-02-06T07:38:31.570Z,1.50
2023-02-06T07:41:02.758Z,1.50
2023-02-06T07:43:30.471Z,1.50
2023-02-06T07:46:01.372Z,1.50
2023-02-06T07:48:28.796Z,1.60
2023-02-06T07:50:56.147Z,1.60
2023-02-06T07:55:56.944Z,1.70
2023-02-06T07:58:43.715Z,1.70
2023-02-06T08:01:17.533Z,1.70
2023-02-06T08:03:48.833Z,1.80
2023-02-06T08:06:16.495Z,1.80
2023-02-06T08:08:44.005Z,1.80
2023-02-06T08:11:12.722Z,1.90
2023-02-06T08:13:39.982Z,1.90
2023-02-06T08:16:08.046Z,1.90
2023-02-06T08:18:35.163Z,1.90
2023-02-06T08:21:03.783Z,2.00
2023-02-06T08:23:30.813Z,2.00
2023-02-06T08:26:05.370Z,2.10
2023-02-06T08:28:32.500Z,2.10
2023-02-06T08:30:59.499Z,2.10
2023-02-06T08:33:26.571Z,2.10
2023-02-06T08:36:08.779Z,2.20
2023-02-06T08:38:43.038Z,2.20
2023-02-06T08:41:18.432Z,2.30
2023-02-06T08:43:46.368Z,2.30
2023-02-06T08:46:13.610Z,2.40
2023-02-06T08:48:40.606Z,2.40
2023-02-06T08:51:08.590Z,2.40
2023-02-06T08:53:35.851Z,2.40
2023-02-06T08:56:17.783Z,2.40
2023-02-06T08:58:51.520Z,2.40
2023-02-06T09:01:18.608Z,2.40
2023-02-06T09:03:46.152Z,2.40
2023-02-06T09:06:13.562Z,2.50
2023-02-06T09:08:41.010Z,2.50
2023-02-06T09:11:09.317Z,2.60
2023-02-06T09:13:36.269Z,2.60
2023-02-06T09:16:03.699Z,2.60
2023-02-06T09:18:30.618Z,2.60
2023-02-06T09:21:26.730Z,2.60
2023-02-06T09:24:08.845Z,2.60
2023-02-06T09:26:59.481Z,2.60
2023-02-06T09:29:46.795Z,2.60
2023-02-06T09:32:33.918Z,2.60
2023-02-06T09:35:07.536Z,2.70
2023-02-06T09:37:37.014Z,2.80
2023-02-06T09:40:04.061Z,2.80
2023-02-06T09:42:35.933Z,2.80
2023-02-06T09:45:06.112Z,2.80
2023-02-06T09:47:34.701Z,2.80
2023-02-06T09:50:10.349Z,2.80
2023-02-06T09:52:37.328Z,2.80
2023-02-06T09:55:10.400Z,2.80
2023-02-06T09:57:53.608Z,2.80
2023-02-06T10:00:40.099Z,2.80
2023-02-06T10:03:07.009Z,2.80
2023-02-06T10:05:50.973Z,2.80
2023-02-06T10:08:50.569Z,2.90
2023-02-06T10:11:21.362Z,2.90
2023-02-06T10:13:50.535Z,2.80
2023-02-06T10:16:30.998Z,2.80
2023-02-06T10:19:15.156Z,2.80
2023-02-06T10:21:51.782Z,2.80
2023-02-06T10:24:45.006Z,2.80
2023-02-06T10:27:14.032Z,2.80
2023-02-06T10:29:42.111Z,2.80
2023-02-06T10:32:29.901Z,2.80
2023-02-06T10:35:15.541Z,2.80
2023-02-06T10:37:51.694Z,2.80
2023-02-06T10:40:24.817Z,2.80
2023-02-06T10:42:58.149Z,2.80
2023-02-06T10:45:31.120Z,2.80
2023-02-06T10:48:16.545Z,2.80
2023-02-06T10:50:46.159Z,2.80
2023-02-06T10:53:19.966Z,2.80
2023-02-06T10:55:55.563Z,2.90
2023-02-06T10:58:37.898Z,2.90
2023-02-06T11:01:25.005Z,2.90
2023-02-06T11:03:58.320Z,2.90
2023-02-06T11:06:26.414Z,2.90
2023-02-06T11:08:53.397Z,3.00
2023-02-06T11:11:25.069Z,2.90
2023-02-06T11:14:07.399Z,2.90
2023-02-06T11:16:37.677Z,2.90
2023-02-06T11:19:14.838Z,2.90
2023-02-06T11:21:44.089Z,2.90
2023-02-06T11:24:12.296Z,2.90
2023-02-06T11:26:43.320Z,3.00
2023-02-06T11:29:22.051Z,3.00
2023-02-06T11:31:54.455Z,3.00
2023-02-06T11:34:32.463Z,3.00
2023-02-06T11:37:07.359Z,3.00
2023-02-06T11:39:44.062Z,3.00
2023-02-06T11:42:25.135Z,2.90
2023-02-06T11:44:58.708Z,2.90
2023-02-06T11:47:29.727Z,2.90
2023-02-06T11:50:19.888Z,2.90
2023-02-06T11:52:47.237Z,2.90
2023-02-06T11:55:25.272Z,2.90
2023-02-06T11:58:04.321Z,2.90
2023-02-06T12:00:31.838Z,2.90
2023-02-06T12:02:58.840Z,2.90
2023-02-06T12:05:28.575Z,2.90
2023-02-06T12:08:00.526Z,2.80
2023-02-06T12:10:29.368Z,2.90
2023-02-06T12:13:24.016Z,2.80
2023-02-06T12:16:05.105Z,2.80
2023-02-06T12:18:55.474Z,2.80
2023-02-06T12:21:37.772Z,2.80
2023-02-06T12:24:20.309Z,2.80
2023-02-06T12:26:47.824Z,2.80
2023-02-06T12:29:22.983Z,2.80
2023-02-06T12:32:18.445Z,2.80
2023-02-06T12:34:56.022Z,2.80
2023-02-06T12:37:26.873Z,2.80
2023-02-06T12:39:53.930Z,2.70
2023-02-06T12:42:20.869Z,2.80
2023-02-06T12:44:56.720Z,2.80
2023-02-06T12:47:34.874Z,2.80
2023-02-06T12:50:02.528Z,2.80
2023-02-06T12:52:35.590Z,2.80
2023-02-06T12:55:35.095Z,2.80
2023-02-06T12:58:02.949Z,2.80
2023-02-06T13:00:30.677Z,2.80
2023-02-06T13:03:23.195Z,2.80
2023-02-06T13:06:18.046Z,2.80
2023-02-06T13:08:58.009Z,2.80
2023-02-06T13:11:35.611Z,2.80
2023-02-06T13:14:10.224Z,2.80
2023-02-06T13:16:38.537Z,2.80
2023-02-06T13:19:05.721Z,2.80
2023-02-06T13:21:35.268Z,2.80
2023-02-06T13:24:02.566Z,2.80
2023-02-06T13:26:51.561Z,2.80
2023-02-06T13:29:25.503Z,2.80
2023-02-06T13:32:20.420Z,2.80
2023-02-06T13:34:50.740Z,2.80
2023-02-06T13:37:36.807Z,2.80
2023-02-06T13:40:13.095Z,2.80
2023-02-06T13:42:58.742Z,2.80
2023-02-06T13:45:41.706Z,2.80
2023-02-06T13:49:00.142Z,2.80
2023-02-06T13:52:03.107Z,2.70
2023-02-06T13:54:50.925Z,2.70
2023-02-06T13:57:30.784Z,2.70
2023-02-06T14:00:30.246Z,2.70
2023-02-06T14:03:07.421Z,2.70
2023-02-06T14:05:54.811Z,2.70
2023-02-06T14:08:40.489Z,2.70
2023-02-06T14:11:26.014Z,2.60
2023-02-06T14:13:58.918Z,2.60
2023-02-06T14:16:41.090Z,2.60
2023-02-06T14:19:25.713Z,2.60
2023-02-06T14:21:52.865Z,2.60
2023-02-06T14:24:46.182Z,2.60
2023-02-06T14:27:15.861Z,2.60
2023-02-06T14:29:42.826Z,2.60
2023-02-06T14:32:23.771Z,2.50
2023-02-06T14:34:50.688Z,2.50
2023-02-06T14:37:17.604Z,2.50
2023-02-06T14:39:44.604Z,2.50
2023-02-06T14:42:31.901Z,2.50
2023-02-06T14:44:58.924Z,2.50
2023-02-06T14:47:44.348Z,2.50
2023-02-06T14:50:17.841Z,2.50
2023-02-06T14:52:45.598Z,2.50
2023-02-06T14:55:28.666Z,2.50
2023-02-06T14:57:55.682Z,2.50
2023-02-06T15:00:23.024Z,2.50
2023-02-06T15:03:02.553Z,2.50
2023-02-06T15:05:31.850Z,2.50
2023-02-06T15:08:00.223Z,2.50
2023-02-06T15:10:29.216Z,2.50
2023-02-06T15:12:56.465Z,2.50
2023-02-06T15:15:24.633Z,2.50
2023-02-06T15:18:04.437Z,2.50
2023-02-06T15:20:34.749Z,2.50
2023-02-06T15:23:17.052Z,2.50
2023-02-06T15:26:05.663Z,2.50
2023-02-06T15:28:34.070Z,2.50
2023-02-06T15:31:02.490Z,2.50
2023-02-06T15:33:31.406Z,2.50
2023-02-06T15:35:59.472Z,2.50
2023-02-06T15:38:27.890Z,2.50
2023-02-06T15:41:15.115Z,2.50
2023-02-06T15:43:44.469Z,2.50
2023-02-06T15:46:11.692Z,2.50
2023-02-06T15:48:49.129Z,2.50
2023-02-06T15:51:16.090Z,2.50
2023-02-06T15:53:44.124Z,2.50
2023-02-06T15:56:30.085Z,2.50
2023-02-06T15:58:58.410Z,2.50
2023-02-06T16:01:25.868Z,2.50
2023-02-06T16:03:57.471Z,2.50
2023-02-06T16:06:24.492Z,2.50
2023-02-06T16:08:58.615Z,2.50
2023-02-06T16:11:48.263Z,2.50
2023-02-06T16:14:26.021Z,2.50
2023-02-06T16:16:56.669Z,2.40
2023-02-06T16:19:37.794Z,2.50
2023-02-06T16:22:06.961Z,2.40
2023-02-06T16:24:34.593Z,2.40
2023-02-06T16:27:08.487Z,2.40
2023-02-06T16:29:36.220Z,2.40
2023-02-06T16:32:12.139Z,2.40
2023-02-06T16:34:40.939Z,2.40
2023-02-06T16:37:15.325Z,2.40
2023-02-06T16:39:43.355Z,2.40
2023-02-06T16:42:18.624Z,2.40
2023-02-06T16:44:49.392Z,2.40
2023-02-06T16:47:31.207Z,2.40
2023-02-06T16:50:05.942Z,2.40
2023-02-06T16:52:34.176Z,2.40
2023-02-06T16:55:02.471Z,2.40
2023-02-06T16:57:35.138Z,2.30
2023-02-06T17:00:15.940Z,2.30
2023-02-06T17:02:43.084Z,2.20
2023-02-06T17:05:10.113Z,2.20
2023-02-06T17:07:37.298Z,2.10
2023-02-06T17:10:04.970Z,2.10
2023-02-06T17:12:32.023Z,2.00
2023-02-06T17:14:59.132Z,1.90
2023-02-06T17:17:26.053Z,1.90
2023-02-06T17:19:53.140Z,1.80
2023-02-06T17:22:20.105Z,1.80
2023-02-06T17:24:47.120Z,1.70
2023-02-06T17:27:18.838Z,1.70
2023-02-06T17:29:47.607Z,1.70
2023-02-06T17:32:26.597Z,1.60
2023-02-06T17:35:02.738Z,1.60
2023-02-06T17:37:29.729Z,1.60
2023-02-06T17:39:57.012Z,1.50
2023-02-06T17:42:25.750Z,1.50
2023-02-06T17:44:52.686Z,1.50
2023-02-06T17:47:26.407Z,1.50
2023-02-06T17:50:00.136Z,1.50
2023-02-06T17:52:27.469Z,1.40
2023-02-06T17:54:54.497Z,1.40
2023-02-06T17:57:21.387Z,1.40
2023-02-06T17:59:48.504Z,1.50
2023-02-06T18:02:15.416Z,1.40
2023-02-06T18:04:42.770Z,1.50
2023-02-06T18:07:11.885Z,1.60
2023-02-06T18:09:41.770Z,1.60
2023-02-06T18:12:09.470Z,1.70
2023-02-06T18:14:36.530Z,1.70
2023-02-06T18:17:06.181Z,1.60
2023-02-06T18:19:41.471Z,1.60
2023-02-06T18:22:09.833Z,1.60
2023-02-06T18:24:36.776Z,1.50
2023-02-06T18:27:10.359Z,1.50
2023-02-06T18:29:50.385Z,1.50
2023-02-06T18:32:18.893Z,1.50
2023-02-06T18:34:45.907Z,1.50
2023-02-06T18:37:12.982Z,1.50
2023-02-06T18:39:42.145Z,1.60
2023-02-06T18:42:29.025Z,1.60
2023-02-06T18:44:56.125Z,1.60
2023-02-06T18:47:23.122Z,1.70
2023-02-06T18:49:50.201Z,1.70
2023-02-06T18:52:17.997Z,1.80
2023-02-06T18:54:45.346Z,1.80
2023-02-06T18:57:12.250Z,1.90
2023-02-06T18:59:39.307Z,1.90
2023-02-06T19:02:07.746Z,1.90
2023-02-06T19:04:36.462Z,1.90
2023-02-06T19:07:18.361Z,1.90
2023-02-06T19:10:02.482Z,1.90
2023-02-06T19:12:37.234Z,1.80
2023-02-06T19:15:04.920Z,1.70
2023-02-06T19:17:32.141Z,1.70
2023-02-06T19:19:59.179Z,1.70
2023-02-06T19:22:26.539Z,1.60
2023-02-06T19:24:53.540Z,1.50
2023-02-06T19:27:21.212Z,1.50
2023-02-06T19:29:48.372Z,1.50
2023-02-06T19:32:15.291Z,1.50
2023-02-06T19:34:44.125Z,1.60
2023-02-06T19:37:11.780Z,1.60
2023-02-06T19:39:40.460Z,1.70
2023-02-06T19:42:15.614Z,1.70
2023-02-06T19:44:43.057Z,1.80
2023-02-06T19:47:10.592Z,1.80
2023-02-06T19:49:37.682Z,1.80
2023-02-06T19:52:04.770Z,1.80
2023-02-06T19:54:45.473Z,1.80
2023-02-06T19:57:19.525Z,1.80
2023-02-06T19:59:46.410Z,1.80
2023-02-06T20:02:14.441Z,1.80
2023-02-06T20:04:41.590Z,1.80
2023-02-06T20:07:08.727Z,1.80
2023-02-06T20:09:36.621Z,1.80
2023-02-06T20:12:03.886Z,1.80
2023-02-06T20:14:31.662Z,1.80
2023-02-06T20:16:58.917Z,1.80
2023-02-06T20:19:27.137Z,1.80
2023-02-06T20:21:55.581Z,1.80
2023-02-06T20:24:24.300Z,1.90
2023-02-06T20:26:55.526Z,1.80
2023-02-06T20:29:27.632Z,1.90
2023-02-06T20:31:55.656Z,1.90
2023-02-06T20:34:22.846Z,1.90
2023-02-06T20:36:50.387Z,2.00
2023-02-06T20:39:17.854Z,2.00
2023-02-06T20:41:45.592Z,2.00
2023-02-06T20:44:13.578Z,1.90
2023-02-06T20:46:40.916Z,1.90
2023-02-06T20:49:12.514Z,1.90
2023-02-06T20:51:39.542Z,1.90
2023-02-06T20:54:06.704Z,1.90
2023-02-06T20:56:34.043Z,1.90
2023-02-06T20:59:02.318Z,1.90
2023-02-06T21:01:30.895Z,1.90
2023-02-06T21:04:02.863Z,1.90
2023-02-06T21:06:30.543Z,2.00
2023-02-06T21:09:00.309Z,1.90
2023-02-06T21:11:30.253Z,1.90
2023-02-06T21:13:58.797Z,1.90
2023-02-06T21:16:26.819Z,1.90
2023-02-06T21:18:54.616Z,1.90
2023-02-06T21:21:21.848Z,2.00
2023-02-06T21:23:48.849Z,2.00
2023-02-06T21:26:18.037Z,2.00
2023-02-06T21:28:46.325Z,2.00
2023-02-06T21:31:16.110Z,2.00
2023-02-06T21:33:44.975Z,2.00
2023-02-06T21:36:12.220Z,2.00
2023-02-06T21:38:39.268Z,2.00
2023-02-06T21:41:07.278Z,1.90
2023-02-06T21:43:34.304Z,2.00
2023-02-06T21:46:02.328Z,1.90
2023-02-06T21:48:29.616Z,1.90
2023-02-06T21:50:57.070Z,1.80
2023-02-06T21:53:24.213Z,1.80
2023-02-06T21:55:59.198Z,1.80
2023-02-06T21:58:32.387Z,1.80
2023-02-06T22:00:59.632Z,1.90
2023-02-06T22:03:26.625Z,1.90
2023-02-06T22:05:53.536Z,1.90
2023-02-06T22:08:20.607Z,2.00
2023-02-06T22:10:47.571Z,2.00
2023-02-06T22:13:14.607Z,2.00
2023-02-06T22:15:48.394Z,2.00
2023-02-06T22:18:22.322Z,2.00
2023-02-06T22:20:49.250Z,2.00
2023-02-06T22:23:16.385Z,2.10
2023-02-06T22:25:47.823Z,2.00
2023-02-06T22:28:14.938Z,2.00
2023-02-06T22:30:41.945Z,2.00
2023-02-06T22:33:08.861Z,2.00
2023-02-06T22:35:51.598Z,1.90
2023-02-06T22:38:25.340Z,1.90
2023-02-06T22:41:02.698Z,1.90
2023-02-06T22:43:30.345Z,1.90
2023-02-06T22:45:57.409Z,1.80
2023-02-06T22:48:24.476Z,1.80
2023-02-06T22:50:53.444Z,1.70
2023-02-06T22:53:30.116Z,1.70
2023-02-06T22:56:16.105Z,1.70
2023-02-06T22:58:43.128Z,1.60
2023-02-06T23:01:10.197Z,1.60
2023-02-06T23:03:37.167Z,1.70
2023-02-06T23:06:04.966Z,1.70
2023-02-06T23:08:31.855Z,1.60
2023-02-06T23:10:58.882Z,1.60
2023-02-06T23:13:26.097Z,1.60
2023-02-06T23:16:06.702Z,1.60
2023-02-06T23:18:46.757Z,1.60
2023-02-06T23:21:21.053Z,1.60
2023-02-06T23:23:50.474Z,1.60
2023-02-06T23:26:18.650Z,1.70
2023-02-06T23:28:45.670Z,1.60
2023-02-06T23:31:12.846Z,1.60
2023-02-06T23:33:39.834Z,1.60
2023-02-06T23:36:11.331Z,1.70
2023-02-06T23:38:38.462Z,1.70
2023-02-06T23:41:09.554Z,1.70
2023-02-06T23:43:36.585Z,1.80
2023-02-06T23:46:04.097Z,1.80
2023-02-06T23:48:31.613Z,1.80
2023-02-06T23:50:58.566Z,1.80
2023-02-06T23:53:25.591Z,1.80
2023-02-06T23:55:52.706Z,1.90
2023-02-06T23:58:28.803Z,1.80
